Time;durP1;ratioP1;P1;durP2;ratioP2;P2;SDS_P1;SDS_P2;PMS_P1;PMS_P2;Temp;Humidity;BMP_temperature;BMP_pressure;BME280_temperature;BME280_humidity;BME280_pressure;Samples;Min_cycle;Max_cycle;Signal;HPM_P1;HPM_P2
2023/08/29 00:00:48;;;;;;;15.95;13.57;;;;;;;10.66;100.00;92465.47;2114376;28;20098;-80
2023/08/29 00:01:49;;;;;;;17.50;12.95;;;;;;;10.65;100.00;92457.88;2117947;28;20027;-80
2023/08/29 00:02:51;;;;;;;16.45;13.48;;;;;;;10.73;100.00;92464.50;2101556;28;20479;-79
2023/08/29 00:03:55;;;;;;;17.58;13.60;;;;;;;10.64;100.00;92448.38;2113935;28;20027;-79
2023/08/29 00:04:56;;;;;;;17.95;13.55;;;;;;;10.63;100.00;92458.34;2112102;28;20034;-80
2023/08/29 00:06:04;;;;;;;18.02;13.95;;;;;;;10.64;100.00;92459.81;2118443;27;20394;-79
2023/08/29 00:07:05;;;;;;;16.77;13.30;;;;;;;10.62;100.00;92456.06;2115481;27;20028;-80
2023/08/29 00:08:06;;;;;;;16.58;14.07;;;;;;;10.65;100.00;92465.91;2104648;28;20024;-80
2023/08/29 00:09:07;;;;;;;17.40;13.90;;;;;;;10.64;100.00;92459.06;2113243;28;20063;-81
2023/08/29 00:10:09;;;;;;;15.38;12.93;;;;;;;10.66;100.00;92464.72;2122271;27;20344;-81
2023/08/29 00:11:10;;;;;;;21.75;12.85;;;;;;;10.54;100.00;92464.34;2114288;28;20562;-80
2023/08/29 00:12:11;;;;;;;15.93;13.77;;;;;;;10.72;100.00;92465.69;2111989;28;20027;-82
2023/08/29 00:13:12;;;;;;;20.20;14.27;;;;;;;10.62;100.00;92456.81;2118128;27;20031;-81
2023/08/29 00:14:13;;;;;;;19.35;14.50;;;;;;;10.58;100.00;92450.88;2110203;28;20103;-82
2023/08/29 00:15:14;;;;;;;19.80;14.25;;;;;;;10.56;100.00;92461.22;2109867;28;20024;-83
2023/08/29 00:16:16;;;;;;;18.02;14.40;;;;;;;10.59;100.00;92452.34;2118347;27;20039;-82
2023/08/29 00:17:17;;;;;;;17.95;13.75;;;;;;;10.60;100.00;92453.84;2119930;27;20022;-80
2023/08/29 00:18:19;;;;;;;18.70;14.70;;;;;;;10.69;100.00;92450.50;2101307;28;20399;-81
2023/08/29 00:19:21;;;;;;;22.10;14.77;;;;;;;10.64;100.00;92454.47;2101170;28;20020;-81
2023/08/29 00:20:22;;;;;;;18.35;14.98;;;;;;;10.62;100.00;92453.41;2108059;28;20103;-79
2023/08/29 00:21:23;;;;;;;22.60;14.65;;;;;;;10.56;100.00;92453.94;2109750;28;20015;-81
2023/08/29 00:22:24;;;;;;;19.10;15.30;;;;;;;10.63;100.00;92452.25;2109810;28;20042;-81
2023/08/29 00:23:25;;;;;;;22.08;15.35;;;;;;;10.54;100.00;92453.66;2101329;28;20077;-83
2023/08/29 00:24:28;;;;;;;18.50;15.48;;;;;;;10.41;100.00;92454.84;2100801;28;20028;-81
2023/08/29 00:25:29;;;;;;;19.60;14.57;;;;;;;10.55;100.00;92449.06;2102583;28;20479;-80
2023/08/29 00:26:31;;;;;;;20.23;15.68;;;;;;;10.53;100.00;92456.72;2108863;28;20180;-83
2023/08/29 00:27:32;;;;;;;26.23;16.55;;;;;;;10.34;100.00;92453.88;2111118;28;20028;-81
2023/08/29 00:28:33;;;;;;;20.83;15.80;;;;;;;10.48;100.00;92452.69;2111560;28;20055;-81
2023/08/29 00:29:34;;;;;;;21.13;15.88;;;;;;;10.45;100.00;92453.56;2120234;27;20567;-83
2023/08/29 00:30:39;;;;;;;20.55;16.13;;;;;;;10.38;100.00;92459.13;2107682;28;20024;-82
2023/08/29 00:31:40;;;;;;;20.40;16.10;;;;;;;10.33;100.00;92463.09;2118127;27;20035;-82
2023/08/29 00:32:41;;;;;;;21.20;15.30;;;;;;;10.38;100.00;92459.13;2117512;27;20027;-79
2023/08/29 00:33:42;;;;;;;20.75;15.50;;;;;;;10.33;100.00;92463.09;2113676;27;20026;-80
2023/08/29 00:34:43;;;;;;;24.52;15.40;;;;;;;10.33;100.00;92465.00;2125278;27;20050;-80
2023/08/29 00:35:46;;;;;;;19.58;15.73;;;;;;;10.32;100.00;92469.63;2119609;27;20048;-83
2023/08/29 00:36:47;;;;;;;17.50;15.23;;;;;;;10.38;100.00;92459.13;2101689;28;20028;-82
2023/08/29 00:37:48;;;;;;;21.08;15.65;;;;;;;10.39;100.00;92465.94;2109170;27;20054;-81
2023/08/29 00:38:49;;;;;;;22.23;15.43;;;;;;;10.44;100.00;92462.00;2123272;27;20022;-79
2023/08/29 00:39:50;;;;;;;23.38;15.38;;;;;;;10.45;100.00;92464.25;2109556;28;20023;-82
2023/08/29 00:40:50;;;;;;;19.52;15.45;;;;;;;10.48;100.00;92462.63;2111663;28;20494;-81
2023/08/29 00:41:51;;;;;;;21.13;15.43;;;;;;;10.54;100.00;92463.59;2108160;28;20024;-82
2023/08/29 00:42:52;;;;;;;23.02;15.82;;;;;;;10.54;100.00;92467.00;2098021;28;20027;-82
2023/08/29 00:43:53;;;;;;;23.02;15.43;;;;;;;10.58;100.00;92464.22;2116798;27;20028;-79
2023/08/29 00:44:54;;;;;;;22.15;14.82;;;;;;;10.53;100.00;92462.09;2118381;27;20443;-83
2023/08/29 00:45:55;;;;;;;20.10;14.68;;;;;;;10.53;100.00;92465.50;2117295;27;20023;-80
2023/08/29 00:46:58;;;;;;;19.23;15.40;;;;;;;10.46;100.00;92473.75;2116403;27;20531;-81
2023/08/29 00:48:01;;;;;;;22.02;15.88;;;;;;;10.43;100.00;92471.19;2108258;28;20031;-81
2023/08/29 00:49:03;;;;;;;19.25;15.57;;;;;;;10.49;100.00;92474.81;2109289;27;20108;-81
2023/08/29 00:50:06;;;;;;;22.02;15.40;;;;;;;10.52;100.00;92474.69;2117714;27;20356;-82
2023/08/29 00:51:07;;;;;;;19.83;15.02;;;;;;;10.45;100.00;92479.53;2109842;28;20027;-82
2023/08/29 00:52:08;;;;;;;21.80;15.20;;;;;;;10.46;100.00;92473.75;2117795;27;20526;-82
2023/08/29 00:53:10;;;;;;;24.30;16.30;;;;;;;10.50;100.00;92479.00;2118573;27;20039;-83
2023/08/29 00:54:15;;;;;;;20.13;15.35;;;;;;;10.53;100.00;92480.78;2109469;28;20241;-81
2023/08/29 00:55:16;;;;;;;25.05;15.68;;;;;;;10.51;100.00;92483.16;2108018;28;20027;-80
2023/08/29 00:56:18;;;;;;;21.50;14.75;;;;;;;10.41;100.00;92487.66;2118454;27;20030;-81
2023/08/29 00:57:19;;;;;;;18.25;14.45;;;;;;;10.36;100.00;92482.09;2105582;28;20570;-82
2023/08/29 00:58:19;;;;;;;18.15;14.40;;;;;;;10.44;100.00;92481.44;2096938;28;20028;-80
2023/08/29 00:59:21;;;;;;;17.30;14.82;;;;;;;10.52;100.00;92485.38;2114737;27;20122;-80
2023/08/29 01:00:26;;;;;;;23.45;14.90;;;;;;;10.43;100.00;92481.88;2114345;27;20058;-82
2023/08/29 01:01:28;;;;;;;19.83;14.65;;;;;;;10.47;100.00;92482.50;2108013;27;20078;-81
2023/08/29 01:02:29;;;;;;;16.63;14.48;;;;;;;10.55;100.00;92483.78;2107729;28;20027;-80
2023/08/29 01:03:30;;;;;;;18.23;14.43;;;;;;;10.58;100.00;92478.34;2107696;28;20051;-82
2023/08/29 01:04:31;;;;;;;15.98;14.13;;;;;;;10.63;100.00;92479.72;2114838;27;20487;-79
2023/08/29 01:05:32;;;;;;;19.48;13.63;;;;;;;10.61;100.00;92486.66;2106794;28;20023;-83
2023/08/29 01:06:33;;;;;;;18.05;13.85;;;;;;;10.62;100.00;92486.22;2117025;27;20054;-80
2023/08/29 01:07:35;;;;;;;19.58;14.68;;;;;;;10.66;100.00;92484.19;2108997;28;20024;-82
2023/08/29 01:08:36;;;;;;;16.17;14.25;;;;;;;10.62;100.00;92488.88;2098401;28;20652;-80
2023/08/29 01:09:37;;;;;;;17.17;14.45;;;;;;;10.70;100.00;92484.06;2109231;28;20046;-81
2023/08/29 01:11:07;;;;;;;19.27;14.68;;;;;;;10.60;100.00;92483.25;2106259;28;20074;-80
2023/08/29 01:12:21;;;;;;;17.65;13.68;;;;;;;10.57;100.00;92482.16;2111507;27;20112;-82
2023/08/29 01:13:41;;;;;;;18.08;13.70;;;;;;;10.63;100.00;92484.31;2105537;28;20427;-83
2023/08/29 01:14:47;;;;;;;;;;;;;;;10.51;100.00;92489.25;2105964;27;20471;-81
2023/08/29 01:15:50;;;;;;;16.65;12.60;;;;;;;10.60;100.00;92483.25;2093333;28;19916;-81
2023/08/29 01:17:08;;;;;;;24.15;14.07;;;;;;;10.54;100.00;92488.38;2097329;28;20547;-81
2023/08/29 01:18:12;;;;;;;21.20;14.57;;;;;;;10.63;100.00;92484.31;2109011;27;20040;-80
2023/08/29 01:19:15;;;;;;;17.95;14.93;;;;;;;10.62;100.00;92485.47;2100544;28;20024;-80
2023/08/29 01:20:17;;;;;;;19.85;15.57;;;;;;;10.64;100.00;92475.84;2108999;28;20028;-81
2023/08/29 01:21:45;;;;;;;22.98;15.48;;;;;;;10.54;100.00;92484.97;2108824;28;20134;-81
2023/08/29 01:23:02;;;;;;;22.95;15.07;;;;;;;10.50;100.00;92479.72;2111645;27;20123;-82
2023/08/29 01:24:36;;;;;;;22.77;16.20;;;;;;;10.58;100.00;92485.59;2109216;27;20034;-80
2023/08/29 01:25:48;;;;;;;23.30;16.27;;;;;;;10.56;100.00;92480.69;2103572;28;20387;-81
2023/08/29 01:26:50;;;;;;;24.65;17.15;;;;;;;10.56;100.00;92486.03;2091074;28;20480;-81
2023/08/29 01:27:52;;;;;;;23.98;17.67;;;;;;;10.57;100.00;92484.84;2094636;28;20027;-82
2023/08/29 01:28:54;;;;;;;22.77;17.20;;;;;;;10.53;100.00;92481.53;2100886;28;20021;-80
2023/08/29 01:29:57;;;;;;;25.00;17.83;;;;;;;10.52;100.00;92479.28;2101858;28;20046;-82
2023/08/29 01:30:59;;;;;;;21.92;17.25;;;;;;;10.57;100.00;92484.09;2099919;28;20024;-82
2023/08/29 01:32:01;;;;;;;21.95;17.27;;;;;;;10.57;100.00;92484.84;2106495;28;20028;-82
2023/08/29 01:33:03;;;;;;;23.25;17.30;;;;;;;10.61;100.00;92481.31;2114094;27;20496;-79
2023/08/29 01:34:04;;;;;;;21.15;17.00;;;;;;;10.64;100.00;92481.19;2111271;28;20116;-80
2023/08/29 01:35:06;;;;;;;22.38;16.77;;;;;;;10.57;100.00;92482.16;2101644;27;20123;-82
2023/08/29 01:36:08;;;;;;;20.25;16.95;;;;;;;10.63;100.00;92478.97;2114943;27;20028;-80
2023/08/29 01:37:09;;;;;;;27.40;18.13;;;;;;;10.58;100.00;92481.00;2117034;27;20722;-80
2023/08/29 01:38:10;;;;;;;25.92;17.45;;;;;;;10.57;100.00;92487.50;2098502;28;20478;-80
2023/08/29 01:39:11;;;;;;;22.98;18.10;;;;;;;10.42;100.00;92486.47;2097590;28;20028;-81
2023/08/29 01:40:12;;;;;;;23.65;17.73;;;;;;;10.47;100.00;92482.50;2096594;28;20033;-79
2023/08/29 01:41:13;;;;;;;24.00;17.30;;;;;;;10.49;100.00;92488.94;2107338;28;20123;-80
2023/08/29 01:42:14;;;;;;;22.48;17.00;;;;;;;10.50;100.00;92485.09;2102776;28;20047;-83
2023/08/29 01:43:15;;;;;;;22.65;17.38;;;;;;;10.56;100.00;92480.69;2108435;28;20107;-82
2023/08/29 01:44:16;;;;;;;28.73;17.42;;;;;;;10.58;100.00;92477.59;2099753;28;20123;-79
2023/08/29 01:45:17;;;;;;;22.38;18.15;;;;;;;10.55;100.00;92476.50;2108987;28;20385;-82
2023/08/29 01:46:18;;;;;;;27.08;18.20;;;;;;;10.57;100.00;92484.84;2113318;27;20023;-80
2023/08/29 01:47:19;;;;;;;26.45;17.90;;;;;;;10.48;100.00;92476.72;2117169;27;20152;-83
2023/08/29 01:48:21;;;;;;;24.85;17.77;;;;;;;10.55;100.00;92479.19;2113521;27;20084;-81
2023/08/29 01:49:22;;;;;;;26.10;18.35;;;;;;;10.57;100.00;92471.47;2116092;27;20030;-80
2023/08/29 01:50:25;;;;;;;25.25;19.00;;;;;;;10.53;100.00;92473.50;2108884;28;20034;-82
2023/08/29 01:51:25;;;;;;;25.85;18.00;;;;;;;10.45;100.00;92480.28;2103015;28;20120;-80
2023/08/29 01:52:26;;;;;;;23.25;17.73;;;;;;;10.51;100.00;92473.22;2097271;28;20043;-81
2023/08/29 01:53:28;;;;;;;24.48;18.50;;;;;;;10.50;100.00;92470.97;2107984;28;20020;-82
2023/08/29 01:54:29;;;;;;;22.17;17.50;;;;;;;10.50;100.00;92470.97;2108744;28;20046;-80
2023/08/29 01:55:30;;;;;;;30.10;18.33;;;;;;;10.49;100.00;92467.56;2117393;27;20417;-79
2023/08/29 01:56:32;;;;;;;31.02;18.90;;;;;;;10.47;100.00;92480.59;2116823;27;20027;-83
2023/08/29 01:57:35;;;;;;;23.67;17.02;;;;;;;10.49;100.00;92477.47;2108622;27;20063;-80
2023/08/29 01:58:38;;;;;;;25.00;18.27;;;;;;;10.49;100.00;92474.81;2107283;28;20024;-81
2023/08/29 01:59:40;;;;;;;23.27;17.45;;;;;;;10.44;100.00;92475.34;2110376;28;20061;-81
2023/08/29 02:00:51;;;;;;;24.23;17.65;;;;;;;10.41;100.00;92476.97;2108727;28;20027;-79
2023/08/29 02:01:53;;;;;;;27.25;17.45;;;;;;;10.43;100.00;92473.88;2105775;28;20046;-81
2023/08/29 02:02:54;;;;;;;22.77;17.27;;;;;;;10.47;100.00;92469.91;2114768;27;20019;-81
2023/08/29 02:03:55;;;;;;;20.65;16.58;;;;;;;10.40;100.00;92475.47;2108947;28;20058;-81
2023/08/29 02:04:56;;;;;;;25.70;17.55;;;;;;;10.33;100.00;92475.69;2102550;28;20119;-82
2023/08/29 02:05:58;;;;;;;25.08;18.08;;;;;;;10.42;100.00;92473.13;2099825;28;20028;-79
2023/08/29 02:06:59;;;;;;;23.50;18.15;;;;;;;10.42;100.00;92470.44;2092339;28;20036;-82
2023/08/29 02:08:00;;;;;;;28.38;18.48;;;;;;;10.43;100.00;92474.59;2098985;28;20151;-82
2023/08/29 02:09:01;;;;;;;24.70;18.27;;;;;;;10.40;100.00;92474.72;2113191;27;20501;-82
2023/08/29 02:10:02;;;;;;;23.80;18.42;;;;;;;10.40;100.00;92475.47;2107739;28;20040;-81
2023/08/29 02:11:03;;;;;;;26.15;17.50;;;;;;;10.44;100.00;92473.41;2115143;27;20028;-82
2023/08/29 02:12:05;;;;;;;22.40;17.55;;;;;;;10.45;100.00;92469.59;2117867;27;20062;-81
2023/08/29 02:13:05;;;;;;;26.17;17.65;;;;;;;10.61;100.00;92462.59;2114363;27;20024;-80
2023/08/29 02:14:07;;;;;;;22.05;16.92;;;;;;;10.69;100.00;92461.94;2108621;28;20035;-79
2023/08/29 02:15:12;;;;;;;21.92;17.00;;;;;;;10.67;100.00;92461.63;2111807;28;20417;-80
2023/08/29 02:16:13;;;;;;;22.65;16.65;;;;;;;10.56;100.00;92463.91;2097650;28;20063;-82
2023/08/29 02:17:14;;;;;;;23.02;16.42;;;;;;;10.69;100.00;92463.88;2096504;28;20032;-80
2023/08/29 02:18:15;;;;;;;20.60;16.80;;;;;;;10.61;100.00;92468.69;2101242;28;20356;-80
2023/08/29 02:19:16;;;;;;;25.88;17.70;;;;;;;10.63;100.00;92455.66;2099433;28;20043;-80
2023/08/29 02:20:17;;;;;;;21.33;16.92;;;;;;;10.62;100.00;92464.84;2117131;28;20027;-82
2023/08/29 02:22:47;;;;;;;20.98;16.33;;;;;;;10.10;100.00;92455.41;2132812;27;20174;-82
2023/08/29 02:23:48;;;;;;;26.50;16.60;;;;;;;10.06;100.00;92463.50;2125382;27;20108;-80
2023/08/29 02:24:49;;;;;;;24.75;17.63;;;;;;;9.99;100.00;92457.63;2127460;27;20382;-82
2023/08/29 02:26:05;;;;;;;22.17;15.82;;;;;;;10.00;100.00;92457.19;2111853;28;20487;-81
2023/08/29 02:27:06;;;;;;;22.38;17.17;;;;;;;10.16;100.00;92458.28;2118368;28;20050;-81
2023/08/29 02:28:07;;;;;;;26.17;17.13;;;;;;;10.20;100.00;92450.91;2124223;27;20034;-83
2023/08/29 02:29:08;;;;;;;23.27;16.95;;;;;;;10.14;100.00;92450.69;2124317;27;20147;-83
2023/08/29 02:30:10;;;;;;;24.88;17.13;;;;;;;10.27;100.00;92448.00;2124623;27;20065;-81
2023/08/29 02:31:11;;;;;;;24.95;18.20;;;;;;;10.29;100.00;92446.41;2120497;27;20122;-82
2023/08/29 02:32:12;;;;;;;28.17;18.48;;;;;;;10.22;100.00;92451.94;2110799;28;20031;-82
2023/08/29 02:33:13;;;;;;;23.45;17.75;;;;;;;10.21;100.00;92460.41;2115704;27;20503;-81
2023/08/29 02:34:14;;;;;;;24.83;17.88;;;;;;;10.14;100.00;92452.59;2115102;28;20016;-78
2023/08/29 02:35:15;;;;;;;25.23;17.73;;;;;;;10.09;100.00;92454.63;2115292;28;20519;-83
2023/08/29 02:36:16;;;;;;;22.73;18.25;;;;;;;10.15;100.00;92446.84;2112273;28;20028;-83
2023/08/29 02:37:16;;;;;;;22.88;18.42;;;;;;;10.12;100.00;92442.34;2116169;28;20023;-83
2023/08/29 02:38:17;;;;;;;29.60;19.17;;;;;;;10.12;100.00;92452.28;2125940;27;20027;-82
2023/08/29 02:39:18;;;;;;;25.60;18.17;;;;;;;9.99;100.00;92439.69;2114903;28;20065;-82
2023/08/29 02:40:19;;;;;;;22.27;17.13;;;;;;;10.01;100.00;92450.69;2116264;28;20054;-84
2023/08/29 02:41:20;;;;;;;23.63;17.85;;;;;;;10.04;100.00;92449.81;2120388;27;20022;-83
2023/08/29 02:42:21;;;;;;;24.08;18.23;;;;;;;10.02;100.00;92448.78;2126985;27;20459;-83
2023/08/29 02:43:22;;;;;;;23.10;17.80;;;;;;;9.93;100.00;92446.00;2115507;28;20028;-81
2023/08/29 02:44:23;;;;;;;23.85;17.67;;;;;;;9.96;100.00;92450.47;2117427;28;20133;-80
2023/08/29 02:45:27;;;;;;;25.08;18.02;;;;;;;10.03;100.00;92451.00;2116379;28;20027;-82
2023/08/29 02:46:28;;;;;;;24.27;16.95;;;;;;;9.98;100.00;92446.22;2120380;27;20038;-81
2023/08/29 02:47:29;;;;;;;22.55;17.25;;;;;;;10.00;100.00;92446.50;2112327;28;20052;-81
2023/08/29 02:48:30;;;;;;;25.17;17.65;;;;;;;9.98;100.00;92446.22;2120823;28;20027;-80
2023/08/29 02:49:31;;;;;;;25.30;17.80;;;;;;;9.99;100.00;92445.03;2120380;27;20120;-81
2023/08/29 02:50:33;;;;;;;25.85;16.90;;;;;;;10.02;100.00;92446.84;2129450;27;20019;-81
2023/08/29 02:51:34;;;;;;;25.67;17.40;;;;;;;9.99;100.00;92447.69;2119674;28;20416;-80
2023/08/29 02:52:35;;;;;;;28.83;18.20;;;;;;;10.04;100.00;92446.41;2119999;28;20024;-81
2023/08/29 02:53:36;;;;;;;23.83;17.45;;;;;;;9.96;100.00;92445.13;2124118;28;20027;-81
2023/08/29 02:54:37;;;;;;;23.42;18.17;;;;;;;9.91;100.00;92440.31;2117080;27;20103;-84
2023/08/29 02:55:40;;;;;;;22.20;17.08;;;;;;;9.95;100.00;92436.38;2124347;27;20031;-81
2023/08/29 02:56:41;;;;;;;29.33;17.25;;;;;;;9.94;100.00;92447.50;2115475;28;20080;-83
2023/08/29 02:57:42;;;;;;;27.80;17.05;;;;;;;9.98;100.00;92445.47;2114455;28;20024;-83
2023/08/29 02:58:43;;;;;;;24.70;17.42;;;;;;;9.97;100.00;92446.66;2125376;27;20027;-83
2023/08/29 02:59:44;;;;;;;26.98;16.77;;;;;;;9.94;100.00;92440.22;2126435;27;20367;-84
2023/08/29 03:00:45;;;;;;;26.90;17.52;;;;;;;9.99;100.00;92447.69;2124433;27;20459;-82
2023/08/29 03:01:46;;;;;;;22.27;16.45;;;;;;;9.93;100.00;92444.06;2115771;28;20019;-82
2023/08/29 03:02:47;;;;;;;22.10;17.05;;;;;;;9.96;100.00;92439.78;2105311;28;20053;-81
2023/08/29 03:03:48;;;;;;;22.60;16.15;;;;;;;9.95;100.00;92443.63;2107445;28;20071;-81
2023/08/29 03:04:49;;;;;;;23.35;15.88;;;;;;;10.03;100.00;92445.66;2110125;28;20095;-82
2023/08/29 03:05:57;;;;;;;22.90;15.75;;;;;;;9.96;100.00;92448.53;2115909;28;20027;-83
2023/08/29 03:06:58;;;;;;;23.13;16.30;;;;;;;9.96;100.00;92442.47;2107458;28;20081;-83
2023/08/29 03:08:02;;;;;;;29.02;16.98;;;;;;;9.88;100.00;92443.84;2111748;27;20073;-83
2023/08/29 03:09:04;;;;;;;22.55;17.17;;;;;;;9.85;100.00;92442.78;2116256;27;20039;-82
2023/08/29 03:10:05;;;;;;;24.45;18.08;;;;;;;9.82;100.00;92435.63;2114241;28;20027;-84
2023/08/29 03:11:06;;;;;;;21.02;16.00;;;;;;;9.80;100.00;92432.66;2113142;28;20031;-82
2023/08/29 03:12:07;;;;;;;22.15;16.60;;;;;;;9.81;100.00;92439.47;2125504;27;20379;-81
2023/08/29 03:13:08;;;;;;;26.60;16.38;;;;;;;9.91;100.00;92441.06;2115238;27;20043;-83
2023/08/29 03:14:09;;;;;;;21.63;15.25;;;;;;;9.84;100.00;92436.72;2115766;28;20086;-81
2023/08/29 03:15:10;;;;;;;22.92;16.77;;;;;;;9.89;100.00;92440.03;2122773;27;20535;-82
2023/08/29 03:16:15;;;;;;;20.75;16.52;;;;;;;10.22;100.00;92440.53;2121008;27;20069;-83
2023/08/29 03:17:16;;;;;;;22.13;15.93;;;;;;;10.16;100.00;92437.66;2107928;28;20031;-82
2023/08/29 03:18:17;;;;;;;18.75;15.57;;;;;;;10.05;100.00;92435.31;2116951;27;20027;-82
2023/08/29 03:19:18;;;;;;;23.73;16.25;;;;;;;10.02;100.00;92430.81;2124012;27;20140;-81
2023/08/29 03:20:19;;;;;;;24.35;16.63;;;;;;;9.98;100.00;92430.19;2124073;27;20567;-82
2023/08/29 03:21:20;;;;;;;25.23;16.42;;;;;;;9.96;100.00;92432.53;2111472;28;20097;-80
2023/08/29 03:22:21;;;;;;;23.02;16.15;;;;;;;9.94;100.00;92434.88;2106755;28;20028;-83
2023/08/29 03:23:22;;;;;;;22.92;16.05;;;;;;;9.99;100.00;92434.34;2106619;28;20599;-82
2023/08/29 03:24:23;;;;;;;21.92;16.83;;;;;;;10.06;100.00;92428.06;2106360;28;20050;-82
2023/08/29 03:25:24;;;;;;;24.70;16.90;;;;;;;10.00;100.00;92429.75;2115807;27;20046;-83
2023/08/29 03:26:24;;;;;;;18.75;15.65;;;;;;;10.16;100.00;92434.22;2123443;27;20031;-80
2023/08/29 03:27:25;;;;;;;22.00;16.77;;;;;;;10.11;100.00;92426.75;2124862;27;20128;-83
2023/08/29 03:28:26;;;;;;;24.02;17.42;;;;;;;10.02;100.00;92430.81;2124772;27;20470;-82
2023/08/29 03:29:27;;;;;;;24.83;17.05;;;;;;;10.12;100.00;92429.00;2115349;27;20039;-81
2023/08/29 03:30:29;;;;;;;22.17;16.98;;;;;;;10.07;100.00;92430.28;2124268;27;20080;-83
2023/08/29 03:31:30;;;;;;;24.98;17.52;;;;;;;10.00;100.00;92425.16;2124081;27;20490;-82
2023/08/29 03:32:31;;;;;;;29.00;17.42;;;;;;;9.95;100.00;92425.69;2123988;27;20050;-82
2023/08/29 03:33:32;;;;;;;25.77;17.10;;;;;;;9.99;100.00;92426.34;2115363;28;20560;-82
2023/08/29 03:34:33;;;;;;;23.38;18.08;;;;;;;9.92;100.00;92423.13;2110518;27;20548;-81
2023/08/29 03:35:34;;;;;;;26.48;18.58;;;;;;;9.95;100.00;92428.38;2110057;28;20028;-81
2023/08/29 03:36:38;;;;;;;22.65;17.45;;;;;;;10.01;100.00;92424.00;2109402;27;20028;-83
2023/08/29 03:37:39;;;;;;;23.05;17.08;;;;;;;10.00;100.00;92425.16;2113544;28;20177;-81
2023/08/29 03:38:42;;;;;;;25.30;17.15;;;;;;;9.99;100.00;92423.66;2121331;27;20072;-83
2023/08/29 03:39:42;;;;;;;21.45;16.90;;;;;;;9.93;100.00;92430.72;2118070;27;20042;-81
2023/08/29 03:40:44;;;;;;;22.90;17.00;;;;;;;9.86;100.00;92433.59;2119046;27;20592;-82
2023/08/29 03:41:45;;;;;;;23.27;17.48;;;;;;;9.83;100.00;92421.88;2105918;28;20081;-81
2023/08/29 03:42:47;;;;;;;25.98;17.77;;;;;;;9.90;100.00;92426.25;2101097;28;20059;-81
2023/08/29 03:43:47;;;;;;;28.10;17.05;;;;;;;9.93;100.00;92424.66;2110138;28;20020;-82
2023/08/29 03:44:48;;;;;;;24.10;17.75;;;;;;;9.95;100.00;92428.38;2104195;28;20069;-82
2023/08/29 03:45:57;;;;;;;25.75;17.80;;;;;;;9.90;100.00;92422.81;2105471;28;20102;-81
2023/08/29 03:46:58;;;;;;;25.02;18.55;;;;;;;9.82;100.00;92425.69;2099342;28;20031;-82
2023/08/29 03:47:59;;;;;;;23.70;17.17;;;;;;;9.85;100.00;92424.09;2099968;28;20024;-83
2023/08/29 03:49:00;;;;;;;22.98;17.58;;;;;;;9.99;100.00;92423.66;2112677;28;20319;-83
2023/08/29 03:50:02;;;;;;;29.13;18.67;;;;;;;9.95;100.00;92425.69;2118502;27;20023;-81
2023/08/29 03:51:06;;;;;;;23.90;17.08;;;;;;;9.99;100.00;92429.00;2117992;27;20167;-81
2023/08/29 03:52:07;;;;;;;24.10;17.45;;;;;;;9.98;100.00;92429.44;2118136;27;20113;-82
2023/08/29 03:53:08;;;;;;;23.25;17.55;;;;;;;9.92;100.00;92429.25;2110059;28;20028;-83
2023/08/29 03:54:09;;;;;;;27.30;17.27;;;;;;;9.94;100.00;92429.53;2101680;27;20301;-83
2023/08/29 03:55:10;;;;;;;26.23;17.77;;;;;;;9.96;100.00;92419.19;2110019;28;20032;-82
2023/08/29 03:56:11;;;;;;;21.83;17.20;;;;;;;9.98;100.00;92422.19;2109176;28;20106;-81
2023/08/29 03:57:12;;;;;;;27.80;18.05;;;;;;;10.00;100.00;92427.81;2101311;28;20156;-81
2023/08/29 03:58:13;;;;;;;25.23;18.77;;;;;;;9.96;100.00;92426.44;2118811;27;20023;-82
2023/08/29 03:59:15;;;;;;;23.77;17.45;;;;;;;9.96;100.00;92419.19;2118945;27;20026;-81
2023/08/29 04:00:16;;;;;;;27.33;20.42;;;;;;;9.94;100.00;92421.53;2118765;27;20539;-82
2023/08/29 04:01:19;;;;;;;25.13;17.63;;;;;;;9.86;100.00;92430.19;2118106;27;20113;-83
2023/08/29 04:02:21;;;;;;;28.63;19.00;;;;;;;9.86;100.00;92430.94;2105959;27;20028;-82
2023/08/29 04:03:22;;;;;;;32.15;18.73;;;;;;;9.83;100.00;92424.53;2109236;28;20030;-82
2023/08/29 04:04:23;;;;;;;22.73;17.63;;;;;;;9.90;100.00;92431.56;2107139;28;20031;-81
2023/08/29 04:05:24;;;;;;;26.67;19.00;;;;;;;9.86;100.00;92419.50;2100675;28;20028;-82
2023/08/29 04:06:26;;;;;;;22.55;18.23;;;;;;;9.91;100.00;92432.31;2089088;28;20024;-83
2023/08/29 04:07:27;;;;;;;25.55;19.23;;;;;;;9.82;100.00;92424.94;2112786;28;20034;-82
2023/08/29 04:08:28;;;;;;;25.90;18.60;;;;;;;9.90;100.00;92422.81;2115406;27;20042;-82
2023/08/29 04:09:29;;;;;;;26.20;18.00;;;;;;;9.92;100.00;92423.13;2118740;27;20095;-81
2023/08/29 04:10:36;;;;;;;30.08;18.88;;;;;;;9.99;100.00;92418.31;2109367;28;20058;-82
2023/08/29 04:11:37;;;;;;;23.33;18.73;;;;;;;10.02;100.00;92420.16;2094649;28;20436;-81
2023/08/29 04:12:38;;;;;;;23.95;17.73;;;;;;;10.00;100.00;92427.81;2102455;28;20340;-82
2023/08/29 04:13:39;;;;;;;26.30;18.98;;;;;;;9.94;100.00;92421.53;2109171;28;20058;-82
2023/08/29 04:14:40;;;;;;;25.30;18.95;;;;;;;9.95;100.00;92427.63;2118500;27;20061;-82
2023/08/29 04:15:41;;;;;;;26.63;18.35;;;;;;;9.99;100.00;92421.00;2117559;27;20046;-82
2023/08/29 04:16:42;;;;;;;24.33;19.52;;;;;;;9.96;100.00;92416.50;2109689;28;20028;-81
2023/08/29 04:17:43;;;;;;;23.48;19.23;;;;;;;10.07;100.00;92422.28;2110816;28;20016;-81
2023/08/29 04:18:44;;;;;;;30.20;20.58;;;;;;;10.08;100.00;92425.69;2118014;27;20025;-83
2023/08/29 04:19:45;;;;;;;25.95;19.33;;;;;;;10.11;100.00;92424.09;2118026;27;20027;-81
2023/08/29 04:20:46;;;;;;;24.40;18.58;;;;;;;10.11;100.00;92421.44;2109227;28;20020;-81
2023/08/29 04:21:48;;;;;;;24.83;19.50;;;;;;;10.06;100.00;92425.38;2100755;28;20469;-83
2023/08/29 04:22:51;;;;;;;23.23;18.48;;;;;;;10.07;100.00;92429.53;2088484;28;20332;-81
2023/08/29 04:23:52;;;;;;;22.23;17.90;;;;;;;10.05;100.00;92429.97;2100887;27;20046;-83
2023/08/29 04:24:53;;;;;;;24.33;18.55;;;;;;;9.99;100.00;92420.25;2109487;28;20448;-81
2023/08/29 04:25:59;;;;;;;24.95;18.52;;;;;;;10.02;100.00;92424.75;2100722;28;20369;-82
2023/08/29 04:27:00;;;;;;;24.20;18.27;;;;;;;10.08;100.00;92420.34;2102701;27;20111;-81
2023/08/29 04:28:01;;;;;;;24.60;18.40;;;;;;;10.08;100.00;92420.34;2111337;28;20023;-83
2023/08/29 04:29:02;;;;;;;27.75;19.45;;;;;;;10.34;100.00;92415.75;2098602;28;20518;-81
2023/08/29 04:30:04;;;;;;;24.13;18.48;;;;;;;10.34;100.00;92415.75;2101348;28;20032;-81
2023/08/29 04:31:08;;;;;;;22.73;18.10;;;;;;;10.32;100.00;92415.44;2107109;28;20050;-80
2023/08/29 04:32:09;;;;;;;24.13;18.05;;;;;;;10.17;100.00;92425.03;2108081;28;20445;-82
2023/08/29 04:33:10;;;;;;;22.75;17.85;;;;;;;10.08;100.00;92428.34;2109029;28;20031;-84
2023/08/29 04:34:11;;;;;;;25.38;18.52;;;;;;;10.12;100.00;92420.25;2117855;27;20023;-82
2023/08/29 04:35:12;;;;;;;22.65;17.58;;;;;;;10.38;100.00;92420.97;2118619;27;20066;-82
2023/08/29 04:36:17;;;;;;;23.05;18.52;;;;;;;10.32;100.00;92424.19;2118184;27;20015;-81
2023/08/29 04:37:17;;;;;;;25.98;18.15;;;;;;;10.26;100.00;92417.16;2116673;27;20080;-82
2023/08/29 04:38:18;;;;;;;23.20;17.95;;;;;;;10.23;100.00;92418.00;2117921;27;20077;-82
2023/08/29 04:39:21;;;;;;;22.98;18.50;;;;;;;10.35;100.00;92417.22;2109288;27;20519;-81
2023/08/29 04:40:22;;;;;;;21.90;17.45;;;;;;;10.29;100.00;92425.06;2117982;27;20020;-82
2023/08/29 04:41:23;;;;;;;25.02;18.40;;;;;;;10.28;100.00;92428.91;2106449;28;20024;-81
2023/08/29 04:42:24;;;;;;;24.67;18.73;;;;;;;10.22;100.00;92430.56;2110489;28;20076;-82
2023/08/29 04:43:26;;;;;;;27.80;18.98;;;;;;;10.31;100.00;92421.94;2113026;28;20023;-82
2023/08/29 04:44:29;;;;;;;23.00;18.23;;;;;;;10.26;100.00;92422.50;2114242;27;20088;-81
2023/08/29 04:45:30;;;;;;;25.05;18.63;;;;;;;10.24;100.00;92432.84;2108494;28;20414;-82